createdAt,value
2023-01-12T00:00:58.953Z,6.78
2023-01-12T00:03:29.173Z,7.20
2023-01-12T00:06:02.890Z,7.95
2023-01-12T00:08:34.500Z,6.30
2023-01-12T00:11:05.075Z,7.00
2023-01-12T00:13:35.345Z,7.20
2023-01-12T00:16:26.015Z,6.58
2023-01-12T00:18:54.880Z,7.25
2023-01-12T00:21:25.316Z,7.70
2023-01-12T00:23:54.828Z,8.48
2023-01-12T00:26:24.265Z,6.62
2023-01-12T00:28:53.751Z,6.60
2023-01-12T00:31:23.284Z,6.62
2023-01-12T00:33:52.777Z,6.08
2023-01-12T00:36:22.830Z,5.40
2023-01-12T00:38:53.466Z,6.30
2023-01-12T00:41:41.138Z,7.35
2023-01-12T00:44:28.672Z,7.22
2023-01-12T00:46:58.362Z,6.95
2023-01-12T00:49:27.791Z,6.75
2023-01-12T00:51:57.241Z,7.87
2023-01-12T00:56:55.803Z,6.67
2023-01-12T00:59:25.235Z,6.90
2023-01-12T01:01:54.828Z,6.42
2023-01-12T01:04:24.769Z,6.42
2023-01-12T01:06:54.389Z,6.37
2023-01-12T01:09:24.965Z,6.60
2023-01-12T01:11:54.391Z,5.87
2023-01-12T01:14:26.875Z,7.53
2023-01-12T01:16:56.297Z,5.72
2023-01-12T01:19:25.802Z,6.55
2023-01-12T01:21:55.454Z,7.15
2023-01-12T01:24:24.966Z,7.35
2023-01-12T01:26:54.460Z,8.05
2023-01-12T01:29:24.874Z,8.70
2023-01-12T01:31:56.350Z,6.55
2023-01-12T01:34:25.889Z,7.30
2023-01-12T01:36:55.486Z,7.17
2023-01-12T01:39:24.947Z,7.05
2023-01-12T01:41:55.453Z,6.22
2023-01-12T01:44:34.620Z,6.70
2023-01-12T01:47:09.908Z,6.00
2023-01-12T01:49:54.177Z,6.42
2023-01-12T01:52:26.752Z,6.20
2023-01-12T01:55:05.823Z,6.28
2023-01-12T01:57:44.345Z,6.47
2023-01-12T02:00:16.433Z,7.12
2023-01-12T02:02:48.887Z,6.20
2023-01-12T02:05:21.430Z,6.75
2023-01-12T02:10:22.741Z,6.45
2023-01-12T02:13:10.433Z,6.70
2023-01-12T02:16:08.981Z,5.75
2023-01-12T02:18:56.523Z,5.90
2023-01-12T02:21:38.532Z,6.10
2023-01-12T02:24:33.498Z,5.20
2023-01-12T02:27:14.650Z,5.85
2023-01-12T02:29:49.862Z,5.90
2023-01-12T02:32:38.992Z,5.85
2023-01-12T02:35:17.507Z,5.40
2023-01-12T02:38:05.019Z,6.05
2023-01-12T02:40:57.108Z,7.17
2023-01-12T02:43:29.856Z,7.23
2023-01-12T02:46:05.232Z,8.53
2023-01-12T02:49:02.459Z,7.28
2023-01-12T02:51:56.085Z,8.45
2023-01-12T02:54:29.232Z,7.92
2023-01-12T02:57:02.245Z,6.97
2023-01-12T03:02:13.893Z,6.70
2023-01-12T03:04:45.327Z,6.83
2023-01-12T03:07:29.931Z,6.30
2023-01-12T03:10:20.838Z,6.90
2023-01-12T03:12:51.607Z,6.78
2023-01-12T03:15:23.597Z,5.83
2023-01-12T03:18:14.116Z,6.23
2023-01-12T03:20:47.280Z,5.75
2023-01-12T03:23:19.778Z,6.53
2023-01-12T03:25:52.030Z,5.35
2023-01-12T03:28:24.768Z,6.37
2023-01-12T03:30:57.888Z,5.95
2023-01-12T03:33:28.471Z,5.35
2023-01-12T03:36:19.172Z,5.90
2023-01-12T03:39:03.826Z,5.58
2023-01-12T03:41:36.382Z,5.75
2023-01-12T03:44:08.929Z,5.92
2023-01-12T03:46:44.008Z,5.97
2023-01-12T03:49:22.309Z,5.75
2023-01-12T03:54:22.964Z,6.45
2023-01-12T03:56:54.719Z,6.10
2023-01-12T03:59:25.660Z,5.80
2023-01-12T04:01:55.313Z,6.25
2023-01-12T04:04:25.132Z,5.70
2023-01-12T04:06:54.558Z,5.75
2023-01-12T04:09:25.888Z,6.28
2023-01-12T04:12:10.598Z,5.50
2023-01-12T04:14:42.868Z,5.90
2023-01-12T04:17:14.816Z,6.37
2023-01-12T04:19:45.006Z,6.33
2023-01-12T04:22:36.695Z,6.80
2023-01-12T04:25:09.535Z,6.03
2023-01-12T04:27:40.934Z,5.70
2023-01-12T04:30:12.409Z,6.33
2023-01-12T04:32:44.046Z,6.60
2023-01-12T04:35:14.649Z,6.03
2023-01-12T04:37:45.150Z,5.20
2023-01-12T04:40:16.501Z,5.65
2023-01-12T04:43:08.586Z,6.28
2023-01-12T04:45:42.102Z,5.45
2023-01-12T04:48:14.717Z,6.05
2023-01-12T04:50:44.996Z,6.08
2023-01-12T04:53:14.724Z,5.95
2023-01-12T04:55:45.304Z,5.62
2023-01-12T04:58:15.009Z,5.62
2023-01-12T05:00:44.627Z,5.40
2023-01-12T05:03:16.410Z,6.08
2023-01-12T05:05:45.903Z,4.87
2023-01-12T05:08:35.223Z,5.72
2023-01-12T05:11:04.730Z,5.62
2023-01-12T05:13:34.154Z,5.95
2023-01-12T05:16:12.713Z,6.35
2023-01-12T05:18:45.298Z,6.28
2023-01-12T05:21:18.069Z,7.17
2023-01-12T05:23:47.562Z,5.45
2023-01-12T05:26:16.998Z,5.40
2023-01-12T05:28:51.445Z,5.17
2023-01-12T05:31:21.713Z,5.25
2023-01-12T05:33:53.477Z,6.45
2023-01-12T05:36:24.411Z,6.03
2023-01-12T05:38:54.018Z,6.67
2023-01-12T05:41:23.459Z,5.90
2023-01-12T05:43:54.760Z,6.62
2023-01-12T05:46:44.850Z,6.85
2023-01-12T05:49:14.297Z,6.45
2023-01-12T05:51:43.733Z,6.85
2023-01-12T05:54:13.390Z,6.47
2023-01-12T05:56:44.659Z,6.17
2023-01-12T05:59:14.437Z,7.75
2023-01-12T06:01:44.654Z,9.30
2023-01-12T06:04:14.155Z,7.15
2023-01-12T06:06:43.791Z,6.40
2023-01-12T06:09:13.439Z,7.55
2023-01-12T06:12:00.592Z,7.37
2023-01-12T06:14:30.083Z,7.70
2023-01-12T06:16:59.625Z,6.85
2023-01-12T06:19:29.331Z,5.83
2023-01-12T06:21:59.748Z,6.75
2023-01-12T06:24:29.949Z,7.20
2023-01-12T06:26:59.463Z,6.55
2023-01-12T06:29:28.886Z,6.80
2023-01-12T06:31:58.368Z,7.30
2023-01-12T06:34:27.797Z,7.08
2023-01-12T06:36:57.235Z,7.75
2023-01-12T06:39:27.197Z,6.78
2023-01-12T06:42:14.352Z,6.00
2023-01-12T06:44:43.903Z,6.90
2023-01-12T06:47:13.419Z,6.37
2023-01-12T06:49:42.914Z,6.80
2023-01-12T06:52:12.551Z,7.45
2023-01-12T06:54:42.001Z,8.05
2023-01-12T06:57:11.432Z,7.10
2023-01-12T06:59:42.258Z,6.22
2023-01-12T07:02:15.169Z,5.75
2023-01-12T07:07:13.584Z,7.37
2023-01-12T07:09:43.005Z,7.05
2023-01-12T07:12:12.531Z,8.15
2023-01-12T07:14:41.971Z,7.92
2023-01-12T07:17:12.727Z,8.40
2023-01-12T07:19:43.822Z,9.58
2023-01-12T07:22:13.275Z,8.13
2023-01-12T07:24:42.735Z,8.63
2023-01-12T07:27:12.314Z,7.08
2023-01-12T07:29:41.733Z,8.10
2023-01-12T07:32:11.187Z,8.43
2023-01-12T07:34:40.794Z,8.15
2023-01-12T07:37:10.233Z,8.95
2023-01-12T07:39:39.668Z,8.33
2023-01-12T07:42:25.487Z,8.30
2023-01-12T07:44:54.999Z,8.13
2023-01-12T07:47:25.238Z,7.70
2023-01-12T07:49:54.746Z,7.40
2023-01-12T07:52:24.191Z,8.35
2023-01-12T07:54:53.616Z,8.40
2023-01-12T07:57:23.534Z,7.85
2023-01-12T07:59:52.967Z,8.68
2023-01-12T08:02:23.969Z,8.23
2023-01-12T08:04:54.812Z,7.58
2023-01-12T08:07:24.411Z,7.72
2023-01-12T08:09:54.136Z,9.05
2023-01-12T08:12:23.583Z,7.83
2023-01-12T08:14:53.006Z,9.75
2023-01-12T08:17:24.768Z,8.75
2023-01-12T08:19:57.254Z,8.28
2023-01-12T08:22:30.442Z,9.55
2023-01-12T08:25:08.825Z,9.23
2023-01-12T08:27:41.346Z,9.83
2023-01-12T08:30:13.038Z,9.68
2023-01-12T08:32:43.074Z,11.17
2023-01-12T08:35:15.212Z,11.63
2023-01-12T08:37:44.753Z,12.00
2023-01-12T08:40:15.837Z,12.82
2023-01-12T08:42:45.539Z,13.15
2023-01-12T08:45:14.974Z,13.38
2023-01-12T08:47:45.544Z,13.38
2023-01-12T08:50:15.292Z,12.13
2023-01-12T08:52:44.791Z,13.30
2023-01-12T08:55:14.898Z,12.70
2023-01-12T08:57:44.363Z,13.10
2023-01-12T09:00:15.241Z,12.73
2023-01-12T09:02:44.837Z,11.93
2023-01-12T09:05:16.621Z,11.03
2023-01-12T09:07:46.059Z,10.00
2023-01-12T09:10:16.123Z,9.85
2023-01-12T09:12:45.557Z,7.67
2023-01-12T09:15:15.000Z,8.10
2023-01-12T09:17:44.869Z,7.95
2023-01-12T09:20:15.014Z,7.40
2023-01-12T09:22:44.771Z,7.80
2023-01-12T09:25:14.220Z,7.58
2023-01-12T09:27:43.713Z,7.87
2023-01-12T09:30:13.727Z,6.90
2023-01-12T09:32:43.226Z,7.28
2023-01-12T09:35:12.732Z,7.77
2023-01-12T09:37:43.777Z,8.83
2023-01-12T09:40:16.254Z,7.70
2023-01-12T09:43:11.627Z,8.38
2023-01-12T09:46:01.038Z,7.47
2023-01-12T09:48:31.849Z,7.70
2023-01-12T09:51:04.357Z,6.65
2023-01-12T09:53:53.539Z,7.35
2023-01-12T09:56:28.708Z,6.58
2023-01-12T09:59:19.027Z,6.97
2023-01-12T10:01:49.103Z,7.17
2023-01-12T10:04:20.272Z,6.55
2023-01-12T10:06:50.158Z,6.72
2023-01-12T10:09:22.168Z,6.60
2023-01-12T10:12:14.304Z,6.83
2023-01-12T10:14:47.202Z,7.62
2023-01-12T10:17:38.668Z,5.33
2023-01-12T10:20:24.302Z,6.62
2023-01-12T10:22:56.890Z,5.85
2023-01-12T10:25:53.921Z,5.50
2023-01-12T10:28:30.211Z,5.97
2023-01-12T10:31:01.130Z,5.25
2023-01-12T10:33:34.480Z,6.08
2023-01-12T10:36:10.617Z,5.90
2023-01-12T10:38:42.983Z,5.10
2023-01-12T10:41:17.654Z,5.17
2023-01-12T10:44:05.377Z,4.78
2023-01-12T10:46:36.135Z,5.87
2023-01-12T10:49:18.237Z,5.00
2023-01-12T10:51:59.938Z,4.70
2023-01-12T10:54:35.098Z,5.92
2023-01-12T10:57:11.252Z,4.45
2023-01-12T10:59:42.549Z,4.58
2023-01-12T11:02:16.869Z,4.92
2023-01-12T11:04:54.474Z,5.17
2023-01-12T11:07:29.712Z,4.50
2023-01-12T11:10:19.452Z,4.45
2023-01-12T11:12:55.541Z,4.50
2023-01-12T11:15:25.119Z,4.05
2023-01-12T11:18:24.053Z,3.98
2023-01-12T11:20:59.557Z,4.28
2023-01-12T11:23:32.140Z,3.60
2023-01-12T11:26:03.818Z,4.35
2023-01-12T11:28:40.225Z,4.17
2023-01-12T11:31:12.755Z,4.15
2023-01-12T11:33:52.082Z,3.35
2023-01-12T11:36:27.261Z,3.85
2023-01-12T11:39:02.265Z,3.10
2023-01-12T11:41:47.963Z,3.75
2023-01-12T11:44:26.708Z,3.95
2023-01-12T11:47:02.187Z,3.47
2023-01-12T11:49:34.790Z,3.35
2023-01-12T11:52:04.298Z,3.02
2023-01-12T11:54:33.769Z,3.20
2023-01-12T11:57:27.524Z,2.92
2023-01-12T12:00:03.804Z,3.45
2023-01-12T12:02:41.518Z,3.67
2023-01-12T12:05:32.811Z,3.50
2023-01-12T12:08:05.878Z,3.00
2023-01-12T12:13:31.611Z,3.92
2023-01-12T12:16:07.086Z,3.02
2023-01-12T12:18:48.638Z,3.25
2023-01-12T12:21:50.333Z,3.33
2023-01-12T12:24:51.541Z,3.33
2023-01-12T12:27:33.276Z,4.62
2023-01-12T12:30:28.676Z,3.60
2023-01-12T12:33:20.883Z,3.60
2023-01-12T12:36:19.678Z,3.13
2023-01-12T12:39:17.747Z,3.10
2023-01-12T12:42:26.429Z,4.20
2023-01-12T12:45:16.778Z,3.25
2023-01-12T12:48:24.669Z,3.20
2023-01-12T12:51:00.155Z,4.33
2023-01-12T12:53:42.109Z,3.83
2023-01-12T12:56:14.558Z,2.93
2023-01-12T12:58:47.486Z,3.33
2023-01-12T13:01:27.520Z,3.33
2023-01-12T13:04:05.156Z,3.57
2023-01-12T13:06:50.783Z,3.25
2023-01-12T13:09:23.347Z,3.55
2023-01-12T13:12:02.045Z,3.98
2023-01-12T13:14:36.919Z,3.60
2023-01-12T13:17:24.738Z,3.30
2023-01-12T13:20:24.054Z,3.02
2023-01-12T13:22:46.556Z,3.20
2023-01-12T13:25:23.881Z,2.87
2023-01-12T13:28:01.023Z,3.30
2023-01-12T13:30:35.405Z,2.80
2023-01-12T13:33:29.098Z,3.75
2023-01-12T13:36:01.291Z,3.15
2023-01-12T13:38:45.800Z,3.13
2023-01-12T13:41:51.693Z,3.70
2023-01-12T13:44:27.111Z,3.45
2023-01-12T13:47:05.799Z,2.92
2023-01-12T13:49:38.131Z,2.58
2023-01-12T13:52:10.969Z,2.62
2023-01-12T13:54:43.962Z,2.92
2023-01-12T13:57:22.244Z,2.20
2023-01-12T14:00:07.845Z,3.02
2023-01-12T14:02:44.667Z,2.37
2023-01-12T14:05:26.311Z,3.10
2023-01-12T14:08:17.827Z,2.80
2023-01-12T14:11:04.831Z,2.75
2023-01-12T14:13:52.545Z,2.37
2023-01-12T14:16:41.736Z,3.65
2023-01-12T14:19:29.384Z,2.50
2023-01-12T14:22:02.580Z,3.72
2023-01-12T14:24:32.675Z,2.42
2023-01-12T14:27:05.211Z,2.52
2023-01-12T14:29:36.190Z,2.80
2023-01-12T14:32:06.936Z,2.80
2023-01-12T14:34:38.233Z,2.90
2023-01-12T14:37:11.873Z,3.05
2023-01-12T14:39:42.911Z,2.40
2023-01-12T14:42:38.334Z,2.35
2023-01-12T14:45:40.470Z,2.15
2023-01-12T14:48:31.634Z,3.22
2023-01-12T14:51:12.950Z,2.30
2023-01-12T14:53:45.983Z,2.27
2023-01-12T14:56:21.260Z,2.75
2023-01-12T14:58:51.346Z,3.17
2023-01-12T15:01:38.921Z,2.83
2023-01-12T15:04:18.504Z,2.50
2023-01-12T15:06:48.632Z,2.60
2023-01-12T15:09:30.617Z,2.30
2023-01-12T15:12:00.125Z,3.12
2023-01-12T15:14:30.942Z,2.55
2023-01-12T15:17:19.472Z,2.35
2023-01-12T15:20:08.444Z,2.00
2023-01-12T15:22:55.997Z,2.58
2023-01-12T15:25:38.215Z,2.42
2023-01-12T15:28:08.567Z,2.13
2023-01-12T15:30:40.727Z,3.10
2023-01-12T15:33:10.823Z,2.53
2023-01-12T15:35:43.746Z,2.42
2023-01-12T15:38:14.707Z,2.72
2023-01-12T15:40:46.684Z,2.67
2023-01-12T15:43:18.045Z,2.87
2023-01-12T15:45:49.154Z,2.50
2023-01-12T15:48:18.618Z,2.65
2023-01-12T15:50:48.857Z,2.58
2023-01-12T15:53:21.207Z,2.80
2023-01-12T15:58:19.906Z,2.67
2023-01-12T16:00:49.566Z,2.27
2023-01-12T16:03:48.209Z,2.70
2023-01-12T16:05:50.581Z,3.20
2023-01-12T16:08:19.997Z,3.92
2023-01-12T16:10:57.026Z,3.58
2023-01-12T16:13:26.443Z,3.50
2023-01-12T16:15:55.881Z,3.12
2023-01-12T16:18:26.647Z,4.25
2023-01-12T16:21:03.255Z,5.33
2023-01-12T16:23:33.649Z,14.13
2023-01-12T16:26:03.258Z,31.50
2023-01-12T16:28:32.698Z,21.40
2023-01-12T16:31:08.054Z,23.98
2023-01-12T16:33:38.224Z,16.95
2023-01-12T16:36:09.612Z,13.22
2023-01-12T16:38:39.471Z,16.10
2023-01-12T16:41:16.088Z,14.78
2023-01-12T16:43:45.991Z,11.80
2023-01-12T16:46:17.231Z,12.33
2023-01-12T16:48:46.906Z,12.60
2023-01-12T16:51:19.505Z,13.38
2023-01-12T16:53:48.921Z,12.47
2023-01-12T16:56:18.628Z,12.10
2023-01-12T16:58:52.712Z,10.98
2023-01-12T17:01:27.078Z,14.33
2023-01-12T17:03:58.446Z,14.35
2023-01-12T17:06:30.717Z,13.72
2023-01-12T17:09:04.253Z,14.13
2023-01-12T17:11:36.010Z,15.72
2023-01-12T17:14:07.255Z,16.35
2023-01-12T17:16:36.707Z,15.78
2023-01-12T17:19:06.465Z,16.30
2023-01-12T17:21:36.243Z,15.30
2023-01-12T17:24:05.963Z,15.80
2023-01-12T17:26:37.187Z,15.05
2023-01-12T17:29:08.308Z,16.93
2023-01-12T17:31:40.046Z,15.23
2023-01-12T17:34:13.146Z,15.83
2023-01-12T17:39:12.192Z,18.35
2023-01-12T17:42:00.822Z,17.20
2023-01-12T17:44:31.097Z,16.52
2023-01-12T17:47:00.709Z,22.25
2023-01-12T17:49:30.417Z,19.25
2023-01-12T17:51:59.841Z,18.70
2023-01-12T17:54:29.995Z,23.32
2023-01-12T17:56:59.583Z,29.45
2023-01-12T17:59:29.296Z,28.30
2023-01-12T18:01:59.490Z,26.70
2023-01-12T18:04:28.931Z,24.35
2023-01-12T18:06:58.489Z,25.72
2023-01-12T18:09:28.046Z,24.05
2023-01-12T18:11:57.966Z,22.70
2023-01-12T18:14:27.532Z,22.80
2023-01-12T18:16:57.875Z,23.40
2023-01-12T18:19:28.309Z,21.70
2023-01-12T18:21:57.742Z,20.50
2023-01-12T18:24:27.167Z,19.00
2023-01-12T18:26:56.849Z,18.42
2023-01-12T18:29:26.292Z,17.45
2023-01-12T18:31:55.924Z,15.60
2023-01-12T18:34:25.946Z,17.48
2023-01-12T18:36:55.451Z,21.25
2023-01-12T18:39:24.894Z,26.82
2023-01-12T18:42:12.911Z,25.35
2023-01-12T18:44:42.325Z,29.90
2023-01-12T18:47:34.849Z,21.80
2023-01-12T18:50:22.491Z,24.37
2023-01-12T18:53:10.344Z,31.97
2023-01-12T18:55:43.324Z,20.45
2023-01-12T18:58:12.990Z,20.27
2023-01-12T19:00:42.670Z,19.85
2023-01-12T19:03:13.262Z,24.92
2023-01-12T19:05:44.428Z,25.30
2023-01-12T19:08:30.436Z,28.40
2023-01-12T19:11:08.459Z,33.78
2023-01-12T19:13:56.810Z,34.25
2023-01-12T19:16:45.963Z,35.20
2023-01-12T19:19:15.688Z,40.43
2023-01-12T19:22:04.856Z,40.45
2023-01-12T19:24:52.300Z,39.00
2023-01-12T19:27:39.951Z,37.15
2023-01-12T19:30:11.697Z,37.48
2023-01-12T19:32:41.275Z,36.77
2023-01-12T19:35:11.901Z,36.13
2023-01-12T19:37:43.403Z,38.40
2023-01-12T19:40:15.126Z,45.95
2023-01-12T19:43:03.097Z,46.20
2023-01-12T19:45:32.670Z,50.38
2023-01-12T19:48:03.831Z,59.60
2023-01-12T19:50:33.275Z,57.38
2023-01-12T19:53:03.966Z,55.10
2023-01-12T19:55:34.894Z,55.45
2023-01-12T19:58:06.166Z,50.17
2023-01-12T20:00:38.073Z,52.00
2023-01-12T20:03:07.981Z,50.00
2023-01-12T20:05:41.275Z,48.55
2023-01-12T20:08:11.864Z,50.08
2023-01-12T20:10:41.746Z,48.17
2023-01-12T20:13:14.104Z,47.67
2023-01-12T20:15:45.052Z,49.58
2023-01-12T20:18:15.031Z,49.73
2023-01-12T20:20:44.752Z,48.23
2023-01-12T20:23:19.729Z,49.63
2023-01-12T20:25:49.151Z,47.98
2023-01-12T20:28:20.176Z,46.70
2023-01-12T20:30:49.840Z,46.88
2023-01-12T20:33:19.273Z,52.40
2023-01-12T20:35:50.528Z,55.43
2023-01-12T20:38:20.199Z,47.73
2023-01-12T20:40:50.242Z,54.00
2023-01-12T20:43:19.951Z,53.73
2023-01-12T20:45:50.310Z,58.23
2023-01-12T20:48:20.325Z,60.40
2023-01-12T20:50:49.756Z,57.93
2023-01-12T20:53:19.735Z,59.13
2023-01-12T20:55:52.495Z,56.50
2023-01-12T20:58:22.318Z,59.40
2023-01-12T21:00:53.232Z,61.60
2023-01-12T21:03:23.849Z,61.44
2023-01-12T21:05:53.375Z,64.45
2023-01-12T21:08:23.315Z,59.77
2023-01-12T21:10:55.156Z,62.85
2023-01-12T21:13:24.626Z,61.27
2023-01-12T21:16:00.563Z,60.55
2023-01-12T21:18:31.980Z,55.67
2023-01-12T21:21:01.641Z,55.95
2023-01-12T21:23:31.403Z,54.42
2023-01-12T21:26:01.042Z,59.98
2023-01-12T21:28:30.787Z,57.95
2023-01-12T21:31:04.385Z,53.45
2023-01-12T21:33:34.089Z,52.85
2023-01-12T21:36:04.371Z,56.53
2023-01-12T21:38:34.375Z,55.05
2023-01-12T21:41:06.327Z,52.95
2023-01-12T21:43:36.153Z,61.65
2023-01-12T21:46:09.062Z,61.60
2023-01-12T21:48:44.987Z,56.35
2023-01-12T21:51:19.931Z,57.80
2023-01-12T21:53:49.046Z,60.45
2023-01-12T21:56:18.559Z,60.78
2023-01-12T21:58:48.878Z,57.93
2023-01-12T22:01:18.542Z,60.80
2023-01-12T22:03:48.719Z,56.37
2023-01-12T22:06:18.561Z,55.78
2023-01-12T22:08:48.080Z,61.02
2023-01-12T22:11:19.296Z,59.48
2023-01-12T22:13:48.735Z,60.95
2023-01-12T22:16:19.627Z,59.58
2023-01-12T22:18:51.525Z,63.05
2023-01-12T22:21:23.596Z,63.23
2023-01-12T22:23:53.032Z,58.10
2023-01-12T22:26:22.695Z,59.75
2023-01-12T22:28:52.101Z,59.30
2023-01-12T22:31:24.612Z,61.15
2023-01-12T22:34:01.158Z,64.90
2023-01-12T22:36:34.891Z,58.68
2023-01-12T22:39:04.112Z,61.00
2023-01-12T22:41:33.592Z,58.17
2023-01-12T22:44:03.011Z,65.83
2023-01-12T22:46:32.632Z,62.67
2023-01-12T22:49:02.563Z,68.35
2023-01-12T22:51:31.994Z,67.12
2023-01-12T22:54:01.489Z,64.03
2023-01-12T22:56:30.974Z,66.87
2023-01-12T23:01:48.465Z,63.70
2023-01-12T23:04:17.971Z,63.55
2023-01-12T23:06:47.781Z,63.05
2023-01-12T23:09:17.567Z,62.43
2023-01-12T23:11:47.085Z,62.48
2023-01-12T23:14:16.705Z,53.95
2023-01-12T23:16:46.611Z,49.93
2023-01-12T23:19:18.497Z,47.37
2023-01-12T23:21:49.535Z,48.40
2023-01-12T23:24:19.041Z,45.08
2023-01-12T23:26:48.549Z,42.85
2023-01-12T23:29:18.171Z,40.77
2023-01-12T23:31:48.726Z,39.08
2023-01-12T23:34:18.832Z,37.17
2023-01-12T23:36:48.443Z,36.25
2023-01-12T23:39:18.020Z,35.28
2023-01-12T23:41:47.529Z,32.05
2023-01-12T23:44:17.934Z,31.97
2023-01-12T23:46:47.433Z,32.67
2023-01-12T23:49:17.983Z,32.03
2023-01-12T23:51:47.714Z,31.00
2023-01-12T23:54:19.188Z,28.45
